Terminal Aerodrome Forecast
Issued by NWS

Home | Current Version | Previous Version | Text Only | Print | Product List | Glossary On
Versions: 1 2 3 4 5 6 7 8 9 10 11 12 13 14 15
406
FTUS43 KUNR 101925 AAA
TAFGCC
TAF AMD
KGCC 101925Z 1019/1118 32018KT P6SM SCT250
     FM110200 25009KT P6SM SCT150=

USA.gov is the U.S. government's official web portal to all federal, state and local government web resources and services.